Airfield :
LOGIN :

Register | Disclaimer

   EN    FR    IT 

 










Legend :    VFR   Marginal VFR   IFR   Intensive IFR   Very Intensive IFR
Visi :
Ceiling :
>= 8 km
>= 3000ft
5 to 8 km
1000 to 3000 ft
1500m to 5 km
500 to 1000 ft
800 to 1500m
200 to 500 ft
< 800m
< 200 ft
Symbols :   Thunderstorms  Fog  Heavy snow  Heavy precipitations  Wind > 20 kt
SIGMETs :     Misc.  Thunderstorms  Icing  Turbulence  Mountain Waves  Volcanic Ashes






- Airport Elevation : 1234 ft
- IATA code : LUX


ELLX - Luxembourg Findel

CURRENT METAR :
  • 151050Z 25014KT 9999 FEW015 SCT042 08/04 Q1004 NOSIG

EXPIRED METARs :
  • 151020Z 25015KT 9999 SCT016 SCT020 08/05 Q1003 NOSIG
  • 150950Z 25010KT 9999 SCT012 SCT020 BKN030 07/06 Q1003 BECMG 26015G30KT
  • 150920Z 27012G22KT 230V290 9999 -SHRA SCT015 BKN025 07/06 Q1002 BECMG 26015G30KT
  • 150850Z 26014KT 9999 -SHRA FEW015 SCT035 BKN060 07/05 Q1002 BECMG 26015G30KT
  • 150820Z 28015KT 9999 -SHRA FEW012TCU BKN035 07/06 Q1001 BECMG 26015G30KT

TAF TAF ELLX
Valid from the 15 at 06:00 until the 16 at 12:00 UTC


150500Z 1506/1612 22018G30KT 9999 BKN015
TEMPO 1506/1510 24018G38KT 3000 SHRA SCT012CB BKN012
BECMG 1510/1512 23008KT SCT020
PROB40
TEMPO 1512/1518 4000 -SHRA SCT012TCU
BECMG 1521/1523 3000 -DZ BR BKN004
ATIS : +352 4798 27300
Met : +352 4798 27010 / 27050



MET'MAP, your aeronautical weather chart ! - Copyright ORBIFLY December 2007 - Disclaimer

ORBIFLY MET'MAP TEAM :

Programming & Development : Alexandra Zaïnal
Concept & original design : Baudouin d'Aumeries
Assistance for programming : Marc-Olivier Méhu
Technical & hardware support : Manuel Goepfert

Contact : metmap@orbifly.com




SOURCES & CREDITS :

   NOAA